Time;durP1;ratioP1;P1;durP2;ratioP2;P2;SDS_P1;SDS_P2;PMS_P1;PMS_P2;Temp;Humidity;BMP_temperature;BMP_pressure;BME280_temperature;BME280_humidity;BME280_pressure;Samples;Min_cycle;Max_cycle;Signal;HPM_P1;HPM_P2
2023/05/19 00:01:24;;;;;;;18.50;7.80;;;;;;;;;;5032289;28;20402;-69
2023/05/19 00:03:52;;;;;;;19.88;8.63;;;;;;;;;;5032428;28;20053;-69
2023/05/19 00:06:23;;;;;;;17.42;7.82;;;;;;;;;;5013184;28;20049;-69
2023/05/19 00:08:50;;;;;;;21.45;8.18;;;;;;;;;;5032151;28;20045;-69
2023/05/19 00:11:16;;;;;;;15.57;8.27;;;;;;;;;;5029699;28;20483;-69
2023/05/19 00:13:44;;;;;;;19.45;8.68;;;;;;;;;;5033695;28;20045;-68
2023/05/19 00:16:10;;;;;;;23.98;9.38;;;;;;;;;;5034211;28;20103;-69
2023/05/19 00:18:36;;;;;;;16.00;8.10;;;;;;;;;;5033503;28;20052;-68
2023/05/19 00:21:02;;;;;;;16.92;8.45;;;;;;;;;;5033801;28;20053;-69
2023/05/19 00:23:28;;;;;;;19.48;9.25;;;;;;;;;;5033513;28;20475;-69
2023/05/19 00:25:54;;;;;;;15.18;8.15;;;;;;;;;;5014752;28;20053;-69
2023/05/19 00:28:20;;;;;;;18.38;8.52;;;;;;;;;;5032130;28;20048;-69
2023/05/19 00:30:46;;;;;;;18.17;9.07;;;;;;;;;;5033348;28;20487;-69
2023/05/19 00:33:13;;;;;;;22.23;9.07;;;;;;;;;;5015923;28;20055;-68
2023/05/19 00:35:39;;;;;;;17.88;8.70;;;;;;;;;;5033350;28;20049;-69
2023/05/19 00:38:05;;;;;;;17.42;7.70;;;;;;;;;;5033325;28;20045;-69
2023/05/19 00:40:33;;;;;;;19.98;10.35;;;;;;;;;;5032713;28;20049;-69
2023/05/19 00:42:59;;;;;;;19.60;8.52;;;;;;;;;;5031240;28;20129;-69
2023/05/19 00:45:25;;;;;;;23.90;9.15;;;;;;;;;;5028092;28;20053;-69
2023/05/19 00:47:51;;;;;;;20.75;8.00;;;;;;;;;;5052358;28;20487;-69
2023/05/19 00:50:17;;;;;;;22.23;9.23;;;;;;;;;;5043676;28;20415;-69
2023/05/19 00:52:43;;;;;;;15.38;9.15;;;;;;;;;;5031655;28;20762;-69
2023/05/19 00:55:10;;;;;;;18.15;8.80;;;;;;;;;;5032320;28;20502;-69
2023/05/19 00:57:36;;;;;;;19.38;9.02;;;;;;;;;;5033258;28;20048;-69
2023/05/19 01:00:03;;;;;;;20.08;9.15;;;;;;;;;;5033385;28;20103;-69
2023/05/19 01:02:29;;;;;;;20.45;9.43;;;;;;;;;;5011832;28;20053;-69
2023/05/19 01:04:56;;;;;;;18.63;9.63;;;;;;;;;;5031234;28;20475;-69
2023/05/19 01:07:22;;;;;;;24.13;9.25;;;;;;;;;;5032261;28;20426;-69
2023/05/19 01:09:48;;;;;;;17.95;9.20;;;;;;;;;;5011994;28;20037;-69
2023/05/19 01:12:15;;;;;;;20.67;10.25;;;;;;;;;;5024689;28;20441;-70
2023/05/19 01:14:42;;;;;;;25.60;9.80;;;;;;;;;;5043142;28;20045;-69
2023/05/19 01:17:19;;;;;;;21.52;9.13;;;;;;;;;;5013029;28;20053;-69
2023/05/19 01:20:04;;;;;;;15.48;9.20;;;;;;;;;;5032139;28;20352;-69
2023/05/19 01:22:32;;;;;;;26.20;10.57;;;;;;;;;;5031271;28;20052;-69
2023/05/19 01:25:18;;;;;;;23.90;9.90;;;;;;;;;;5033914;28;20048;-69
2023/05/19 01:27:50;;;;;;;25.48;9.80;;;;;;;;;;5030832;28;20057;-69
2023/05/19 01:30:16;;;;;;;22.85;9.32;;;;;;;;;;5032853;28;20128;-69
2023/05/19 01:32:43;;;;;;;17.63;9.18;;;;;;;;;;5032784;28;20049;-69
2023/05/19 01:35:12;;;;;;;22.55;9.13;;;;;;;;;;5032686;28;20045;-69
2023/05/19 01:37:38;;;;;;;21.63;8.80;;;;;;;;;;5016320;28;20049;-69
2023/05/19 01:40:06;;;;;;;18.45;8.52;;;;;;;;;;5031091;28;20038;-69
2023/05/19 01:42:36;;;;;;;19.45;8.88;;;;;;;;;;5024446;28;20053;-69
2023/05/19 01:45:04;;;;;;;22.45;8.82;;;;;;;;;;5037560;28;20056;-69
2023/05/19 01:47:31;;;;;;;20.77;9.60;;;;;;;;;;5016655;28;20454;-68
2023/05/19 01:49:57;;;;;;;24.70;8.52;;;;;;;;;;5034224;28;20073;-69
2023/05/19 01:52:23;;;;;;;20.45;8.98;;;;;;;;;;5036532;28;20120;-68
2023/05/19 01:54:49;;;;;;;18.20;8.50;;;;;;;;;;5016437;28;20396;-69
2023/05/19 01:57:18;;;;;;;17.92;8.82;;;;;;;;;;4999122;28;20050;-69
2023/05/19 02:00:02;;;;;;;19.00;8.98;;;;;;;;;;5027419;28;20053;-69
2023/05/19 02:02:31;;;;;;;17.33;8.15;;;;;;;;;;5030901;28;20083;-69
2023/05/19 02:05:02;;;;;;;17.65;8.73;;;;;;;;;;5036792;28;20044;-68
2023/05/19 02:07:49;;;;;;;18.95;8.30;;;;;;;;;;5017316;28;20045;-69
2023/05/19 02:10:18;;;;;;;24.58;10.13;;;;;;;;;;5013699;28;20049;-69
2023/05/19 02:12:45;;;;;;;24.30;8.80;;;;;;;;;;5031765;28;20048;-69
2023/05/19 02:15:16;;;;;;;23.13;9.15;;;;;;;;;;5039203;28;20052;-68
2023/05/19 02:17:47;;;;;;;21.63;9.05;;;;;;;;;;5046925;28;20045;-69
2023/05/19 02:20:13;;;;;;;25.33;9.73;;;;;;;;;;5036143;28;20060;-69
2023/05/19 02:22:39;;;;;;;25.13;9.60;;;;;;;;;;5035879;28;20072;-69
2023/05/19 02:25:06;;;;;;;20.73;9.55;;;;;;;;;;5036529;28;20050;-69
2023/05/19 02:27:32;;;;;;;23.85;9.15;;;;;;;;;;5026382;28;20053;-69
2023/05/19 02:29:58;;;;;;;18.80;8.88;;;;;;;;;;4987731;28;20176;-69
2023/05/19 02:32:24;;;;;;;23.77;9.07;;;;;;;;;;5036356;28;20041;-69
2023/05/19 02:34:52;;;;;;;20.65;9.35;;;;;;;;;;5035909;28;20496;-69
2023/05/19 02:37:18;;;;;;;23.98;9.05;;;;;;;;;;5002273;28;20048;-69
2023/05/19 02:39:44;;;;;;;16.67;9.20;;;;;;;;;;5034488;28;20053;-69
2023/05/19 02:42:11;;;;;;;19.92;8.57;;;;;;;;;;5035946;28;20041;-69
2023/05/19 02:44:37;;;;;;;19.58;8.25;;;;;;;;;;4991080;28;20054;-69
2023/05/19 02:47:03;;;;;;;19.23;8.73;;;;;;;;;;5029728;28;20058;-69
2023/05/19 02:49:34;;;;;;;20.88;8.85;;;;;;;;;;5032941;28;20048;-70
2023/05/19 02:52:01;;;;;;;22.10;9.18;;;;;;;;;;5033427;28;20041;-69
2023/05/19 02:54:28;;;;;;;20.00;8.35;;;;;;;;;;5033877;28;20052;-69
2023/05/19 02:56:54;;;;;;;17.70;8.40;;;;;;;;;;5032482;28;20068;-69
2023/05/19 02:59:20;;;;;;;17.20;8.95;;;;;;;;;;5016674;28;20072;-69
2023/05/19 03:01:46;;;;;;;18.10;8.63;;;;;;;;;;5033630;28;20053;-68
2023/05/19 03:04:13;;;;;;;17.17;8.23;;;;;;;;;;5014558;28;20484;-69
2023/05/19 03:06:41;;;;;;;18.92;9.40;;;;;;;;;;5033721;28;20042;-69
2023/05/19 03:09:07;;;;;;;28.40;9.98;;;;;;;;;;5034052;28;20053;-69
2023/05/19 03:11:33;;;;;;;23.00;10.02;;;;;;;;;;4990799;28;20471;-69
2023/05/19 03:13:59;;;;;;;20.02;10.25;;;;;;;;;;5030485;28;20066;-70
2023/05/19 03:16:26;;;;;;;22.40;10.73;;;;;;;;;;5032265;28;20050;-69
2023/05/19 03:18:54;;;;;;;24.67;11.05;;;;;;;;;;5033430;28;20406;-69
2023/05/19 03:21:20;;;;;;;27.85;10.90;;;;;;;;;;5033349;28;20054;-68
2023/05/19 03:23:46;;;;;;;24.98;11.00;;;;;;;;;;5033397;28;20045;-69
2023/05/19 03:26:12;;;;;;;26.83;11.95;;;;;;;;;;5011223;28;20542;-69
2023/05/19 03:28:38;;;;;;;25.77;11.85;;;;;;;;;;5029197;28;20384;-69
2023/05/19 03:31:04;;;;;;;26.90;10.80;;;;;;;;;;5031715;28;20049;-68
2023/05/19 03:33:31;;;;;;;24.70;11.15;;;;;;;;;;5033974;28;20084;-68
2023/05/19 03:35:57;;;;;;;30.50;12.40;;;;;;;;;;5026909;28;20156;-68
2023/05/19 03:38:24;;;;;;;23.48;11.00;;;;;;;;;;5028380;28;20056;-68
2023/05/19 03:40:50;;;;;;;18.75;10.48;;;;;;;;;;5030892;28;20180;-69
2023/05/19 03:43:16;;;;;;;25.30;11.38;;;;;;;;;;5030736;28;20090;-68
2023/05/19 03:45:42;;;;;;;25.10;11.05;;;;;;;;;;5013458;28;20072;-68
2023/05/19 03:48:08;;;;;;;22.52;9.95;;;;;;;;;;5020594;28;20115;-68
2023/05/19 03:50:34;;;;;;;21.88;10.55;;;;;;;;;;5031807;28;20059;-68
2023/05/19 03:53:00;;;;;;;19.45;9.98;;;;;;;;;;5026347;28;20038;-68
2023/05/19 03:55:28;;;;;;;24.95;11.07;;;;;;;;;;5026367;28;20038;-68
2023/05/19 03:57:55;;;;;;;22.48;10.55;;;;;;;;;;5024290;28;20041;-68
2023/05/19 04:00:21;;;;;;;24.38;10.50;;;;;;;;;;5023373;28;20072;-68
2023/05/19 04:02:47;;;;;;;25.98;11.13;;;;;;;;;;5023789;28;20121;-68
2023/05/19 04:05:14;;;;;;;24.92;11.50;;;;;;;;;;5020604;28;20041;-69
2023/05/19 04:07:40;;;;;;;28.48;12.15;;;;;;;;;;5025138;28;20057;-69
2023/05/19 04:10:06;;;;;;;24.20;10.85;;;;;;;;;;5026478;28;20060;-68
2023/05/19 04:12:33;;;;;;;25.25;11.38;;;;;;;;;;5025974;28;20041;-68
2023/05/19 04:14:59;;;;;;;21.27;10.45;;;;;;;;;;5033731;28;20049;-69
2023/05/19 04:17:26;;;;;;;26.48;11.80;;;;;;;;;;5052669;28;20513;-69
2023/05/19 04:19:55;;;;;;;29.13;11.90;;;;;;;;;;5025183;28;20158;-69
2023/05/19 04:22:21;;;;;;;25.02;11.73;;;;;;;;;;5032388;28;20515;-69
2023/05/19 04:24:47;;;;;;;28.17;11.82;;;;;;;;;;5032814;28;20049;-69
2023/05/19 04:27:15;;;;;;;25.70;12.90;;;;;;;;;;5016502;28;20058;-69
2023/05/19 04:29:41;;;;;;;23.23;12.00;;;;;;;;;;5023773;28;20037;-69
2023/05/19 04:32:07;;;;;;;26.15;12.52;;;;;;;;;;5031412;28;20095;-69
2023/05/19 04:34:34;;;;;;;22.17;11.80;;;;;;;;;;5032721;28;20050;-69
2023/05/19 04:37:00;;;;;;;20.88;11.27;;;;;;;;;;5031669;28;20049;-69
2023/05/19 04:39:27;;;;;;;20.20;11.63;;;;;;;;;;5029639;28;20430;-69
2023/05/19 04:41:53;;;;;;;23.10;10.95;;;;;;;;;;5032485;28;20050;-69
2023/05/19 04:44:19;;;;;;;21.77;11.35;;;;;;;;;;5024958;28;20396;-70
2023/05/19 04:46:45;;;;;;;23.35;11.30;;;;;;;;;;5028283;28;20663;-69
2023/05/19 04:49:11;;;;;;;19.60;11.15;;;;;;;;;;5022084;28;20462;-69
2023/05/19 04:51:40;;;;;;;21.95;11.60;;;;;;;;;;5024129;28;20107;-69
2023/05/19 04:54:07;;;;;;;19.90;11.80;;;;;;;;;;5029896;28;20045;-69
2023/05/19 04:56:33;;;;;;;19.45;10.35;;;;;;;;;;5026641;28;20056;-69
2023/05/19 04:58:59;;;;;;;19.85;11.23;;;;;;;;;;5013010;28;20045;-69
2023/05/19 05:01:25;;;;;;;20.10;10.55;;;;;;;;;;5030380;28;20057;-69
2023/05/19 05:03:54;;;;;;;21.35;11.32;;;;;;;;;;5024353;28;20042;-69
2023/05/19 05:06:21;;;;;;;23.45;11.13;;;;;;;;;;5010602;28;20126;-69
2023/05/19 05:08:47;;;;;;;21.23;11.50;;;;;;;;;;5031178;28;20557;-69
2023/05/19 05:11:14;;;;;;;20.30;11.25;;;;;;;;;;5027307;28;20050;-69
2023/05/19 05:13:40;;;;;;;17.92;10.18;;;;;;;;;;5022144;28;20141;-69
2023/05/19 05:16:07;;;;;;;18.10;10.13;;;;;;;;;;5022091;28;20041;-69
2023/05/19 05:18:34;;;;;;;20.08;10.45;;;;;;;;;;5022186;28;20103;-70
2023/05/19 05:21:00;;;;;;;22.58;10.95;;;;;;;;;;5006710;28;20184;-69
2023/05/19 05:23:26;;;;;;;19.35;10.40;;;;;;;;;;5020672;28;20055;-69
2023/05/19 05:25:52;;;;;;;20.05;10.30;;;;;;;;;;5005415;28;20131;-69
2023/05/19 05:28:18;;;;;;;19.08;10.07;;;;;;;;;;5024095;28;20053;-68
2023/05/19 05:30:45;;;;;;;17.08;10.30;;;;;;;;;;5022189;28;20053;-68
2023/05/19 05:33:11;;;;;;;19.70;10.05;;;;;;;;;;5024036;28;20436;-69
2023/05/19 05:35:37;;;;;;;16.20;9.38;;;;;;;;;;5022921;28;20061;-68
2023/05/19 05:38:03;;;;;;;15.38;9.18;;;;;;;;;;5019131;28;20048;-69
2023/05/19 05:40:29;;;;;;;16.90;9.23;;;;;;;;;;5026073;28;20037;-70
2023/05/19 05:42:57;;;;;;;15.05;9.25;;;;;;;;;;5023329;28;20053;-69
2023/05/19 05:45:23;;;;;;;17.13;8.15;;;;;;;;;;5020440;28;20061;-69
2023/05/19 05:47:50;;;;;;;15.85;6.82;;;;;;;;;;5021769;28;20537;-69
2023/05/19 05:50:16;;;;;;;13.32;6.53;;;;;;;;;;5003853;28;20057;-69
2023/05/19 05:52:45;;;;;;;12.07;5.90;;;;;;;;;;5021489;28;20046;-69
2023/05/19 05:55:12;;;;;;;11.75;6.13;;;;;;;;;;5019952;28;20050;-70
2023/05/19 05:57:40;;;;;;;12.25;6.43;;;;;;;;;;5024423;28;20049;-69
2023/05/19 06:00:14;;;;;;;12.55;5.55;;;;;;;;;;5021597;28;20049;-70
2023/05/19 06:02:40;;;;;;;11.55;5.18;;;;;;;;;;5023115;28;20073;-69
2023/05/19 06:05:06;;;;;;;10.98;5.50;;;;;;;;;;5021173;28;20451;-66
2023/05/19 06:07:32;;;;;;;9.52;4.95;;;;;;;;;;5026450;28;20049;-67
2023/05/19 06:10:01;;;;;;;10.77;4.88;;;;;;;;;;5028941;28;20041;-67
2023/05/19 06:12:27;;;;;;;12.20;5.05;;;;;;;;;;5028310;28;20045;-69
2023/05/19 06:14:53;;;;;;;10.70;4.60;;;;;;;;;;5029235;28;20052;-67
2023/05/19 06:17:19;;;;;;;12.25;4.80;;;;;;;;;;5023590;28;20546;-67
2023/05/19 06:19:45;;;;;;;12.05;5.10;;;;;;;;;;5030937;28;20087;-68
2023/05/19 06:22:11;;;;;;;12.05;4.60;;;;;;;;;;5030889;28;20091;-68
2023/05/19 06:24:37;;;;;;;15.90;4.78;;;;;;;;;;4997287;28;20041;-68
2023/05/19 06:27:04;;;;;;;12.10;4.85;;;;;;;;;;5032557;28;20440;-68
2023/05/19 06:29:30;;;;;;;11.50;5.00;;;;;;;;;;5034848;28;20053;-68
2023/05/19 06:31:56;;;;;;;12.57;4.70;;;;;;;;;;4998861;28;20370;-68
2023/05/19 06:34:22;;;;;;;11.80;5.10;;;;;;;;;;5034878;28;20111;-68
2023/05/19 06:36:48;;;;;;;11.98;4.82;;;;;;;;;;5032360;28;20075;-68
2023/05/19 06:39:14;;;;;;;10.25;4.70;;;;;;;;;;5014785;28;20053;-68
2023/05/19 06:41:40;;;;;;;12.90;5.20;;;;;;;;;;5014735;28;20065;-68
2023/05/19 06:44:07;;;;;;;10.25;4.72;;;;;;;;;;5016883;28;20046;-68
2023/05/19 06:46:34;;;;;;;10.77;4.50;;;;;;;;;;5034435;28;20521;-68
2023/05/19 06:49:00;;;;;;;10.93;4.53;;;;;;;;;;5033710;28;20057;-68
2023/05/19 06:51:26;;;;;;;13.13;4.50;;;;;;;;;;5034081;28;20057;-68
2023/05/19 06:53:52;;;;;;;11.68;3.72;;;;;;;;;;5034200;28;20049;-69
2023/05/19 06:56:19;;;;;;;9.80;3.85;;;;;;;;;;5019802;28;20054;-69
2023/05/19 06:58:45;;;;;;;10.27;3.83;;;;;;;;;;5014433;28;20135;-69
2023/05/19 07:01:11;;;;;;;12.55;4.22;;;;;;;;;;5014779;28;20438;-68
2023/05/19 07:03:37;;;;;;;9.60;5.10;;;;;;;;;;5027050;28;20060;-69
2023/05/19 07:06:03;;;;;;;10.80;3.17;;;;;;;;;;5040527;28;20037;-68
2023/05/19 07:08:29;;;;;;;7.72;3.38;;;;;;;;;;5044896;28;20083;-69
2023/05/19 07:10:55;;;;;;;13.70;3.60;;;;;;;;;;5046302;28;20462;-69
2023/05/19 07:13:22;;;;;;;10.77;3.42;;;;;;;;;;5012986;28;20055;-68
2023/05/19 07:15:48;;;;;;;9.98;4.00;;;;;;;;;;5010537;28;20676;-69
2023/05/19 07:18:14;;;;;;;10.60;3.47;;;;;;;;;;5030075;28;20518;-68
2023/05/19 07:20:40;;;;;;;9.15;2.95;;;;;;;;;;5033785;28;20495;-68
2023/05/19 07:23:06;;;;;;;7.50;2.58;;;;;;;;;;5033302;28;20042;-68
2023/05/19 07:25:32;;;;;;;7.47;2.20;;;;;;;;;;5034303;28;20468;-69
2023/05/19 07:27:59;;;;;;;8.55;2.78;;;;;;;;;;5037710;28;20041;-69
2023/05/19 07:30:28;;;;;;;9.68;2.40;;;;;;;;;;5033436;28;20060;-69
2023/05/19 07:32:54;;;;;;;9.25;2.58;;;;;;;;;;5043548;28;20105;-69
2023/05/19 07:35:24;;;;;;;8.93;2.72;;;;;;;;;;5035644;28;20045;-69
2023/05/19 07:37:51;;;;;;;11.88;2.75;;;;;;;;;;5052199;28;20049;-68
2023/05/19 07:40:17;;;;;;;9.15;2.50;;;;;;;;;;5022145;28;20054;-69
2023/05/19 07:42:43;;;;;;;8.52;2.60;;;;;;;;;;5033391;28;20103;-69
2023/05/19 07:45:10;;;;;;;10.32;2.70;;;;;;;;;;5029219;28;20388;-69
2023/05/19 07:47:36;;;;;;;7.45;2.88;;;;;;;;;;5030803;28;20057;-69
2023/05/19 07:50:03;;;;;;;10.60;2.70;;;;;;;;;;5034140;28;20088;-70
2023/05/19 07:52:29;;;;;;;10.02;2.92;;;;;;;;;;5033894;28;20041;-69
2023/05/19 07:54:55;;;;;;;9.75;2.60;;;;;;;;;;5033009;28;20060;-70
2023/05/19 07:57:21;;;;;;;9.07;2.70;;;;;;;;;;5031283;28;20053;-69
2023/05/19 07:59:47;;;;;;;9.27;2.92;;;;;;;;;;5032483;28;20053;-69
2023/05/19 08:02:13;;;;;;;7.10;2.60;;;;;;;;;;5042623;28;20056;-69
2023/05/19 08:04:39;;;;;;;10.02;3.00;;;;;;;;;;5052985;28;20045;-68
2023/05/19 08:07:05;;;;;;;9.95;2.65;;;;;;;;;;5027071;28;20045;-69
2023/05/19 08:09:31;;;;;;;11.68;2.50;;;;;;;;;;5027189;28;20446;-69
2023/05/19 08:11:57;;;;;;;8.95;2.72;;;;;;;;;;5038127;28;20154;-67
2023/05/19 08:14:24;;;;;;;9.60;2.53;;;;;;;;;;5049695;28;20049;-67
2023/05/19 08:16:50;;;;;;;10.88;2.63;;;;;;;;;;5030585;28;20052;-67
2023/05/19 08:19:16;;;;;;;6.90;2.20;;;;;;;;;;5029944;28;20046;-68
2023/05/19 08:21:43;;;;;;;7.15;2.75;;;;;;;;;;5029720;28;20033;-68
2023/05/19 08:24:10;;;;;;;13.63;3.20;;;;;;;;;;5030644;28;20041;-67
2023/05/19 08:26:36;;;;;;;11.38;3.60;;;;;;;;;;5032154;28;20049;-67
2023/05/19 08:29:02;;;;;;;9.10;2.45;;;;;;;;;;5031773;28;20057;-67
2023/05/19 08:31:28;;;;;;;10.02;2.45;;;;;;;;;;5031805;28;20064;-67
2023/05/19 08:33:54;;;;;;;10.73;2.53;;;;;;;;;;5031291;28;20049;-67
2023/05/19 08:36:21;;;;;;;7.85;2.67;;;;;;;;;;5028183;28;20095;-67
2023/05/19 08:38:47;;;;;;;9.75;2.55;;;;;;;;;;5035124;28;20048;-67
2023/05/19 08:41:13;;;;;;;12.45;2.25;;;;;;;;;;5022258;28;20045;-67
2023/05/19 08:43:39;;;;;;;8.40;2.38;;;;;;;;;;5032116;28;20156;-67
2023/05/19 08:46:06;;;;;;;9.95;2.70;;;;;;;;;;5030582;28;20054;-67
2023/05/19 08:48:34;;;;;;;9.93;2.33;;;;;;;;;;5032252;28;20396;-67
2023/05/19 08:51:10;;;;;;;10.40;2.50;;;;;;;;;;5021655;28;20037;-67
2023/05/19 08:53:40;;;;;;;10.52;2.33;;;;;;;;;;5007897;28;20052;-67
2023/05/19 08:56:10;;;;;;;8.50;2.33;;;;;;;;;;5010233;28;20037;-68
2023/05/19 08:58:38;;;;;;;8.77;2.65;;;;;;;;;;5028359;28;20114;-67
2023/05/19 09:01:05;;;;;;;9.70;2.55;;;;;;;;;;5029180;28;20150;-68
2023/05/19 09:03:36;;;;;;;8.02;2.40;;;;;;;;;;5029483;28;20088;-67
2023/05/19 09:06:05;;;;;;;9.85;2.65;;;;;;;;;;5036498;28;20052;-67
2023/05/19 09:08:31;;;;;;;11.13;2.40;;;;;;;;;;5028022;28;20060;-68
2023/05/19 09:10:58;;;;;;;12.13;2.22;;;;;;;;;;5031008;28;20403;-67
2023/05/19 09:13:24;;;;;;;11.13;2.63;;;;;;;;;;5003795;28;20053;-68
2023/05/19 09:15:52;;;;;;;8.40;2.40;;;;;;;;;;5023596;28;20182;-67
2023/05/19 09:18:18;;;;;;;10.75;2.28;;;;;;;;;;5031429;28;20045;-67
2023/05/19 09:20:46;;;;;;;11.63;2.40;;;;;;;;;;5030688;28;20045;-67
2023/05/19 09:23:15;;;;;;;11.75;2.15;;;;;;;;;;5019806;28;21290;-67
2023/05/19 09:25:48;;;;;;;9.20;2.30;;;;;;;;;;5035044;28;20053;-67
2023/05/19 09:28:14;;;;;;;9.60;2.50;;;;;;;;;;5031747;28;20493;-67
2023/05/19 09:30:40;;;;;;;8.27;2.38;;;;;;;;;;5031110;28;20517;-67
2023/05/19 09:33:08;;;;;;;9.68;2.40;;;;;;;;;;5032044;28;20053;-67
2023/05/19 09:35:35;;;;;;;7.90;2.47;;;;;;;;;;5032443;28;20095;-67
2023/05/19 09:38:01;;;;;;;8.43;2.08;;;;;;;;;;5039017;28;20045;-67
2023/05/19 09:40:28;;;;;;;12.05;2.35;;;;;;;;;;5040476;28;20071;-67
2023/05/19 09:42:54;;;;;;;10.20;2.38;;;;;;;;;;5026524;28;20422;-68
2023/05/19 09:45:20;;;;;;;8.73;2.30;;;;;;;;;;5051078;28;20056;-67
2023/05/19 09:47:46;;;;;;;10.45;2.65;;;;;;;;;;5040647;28;20038;-67
2023/05/19 09:50:13;;;;;;;9.50;2.70;;;;;;;;;;5020081;28;20057;-67
2023/05/19 09:52:39;;;;;;;8.48;2.40;;;;;;;;;;5031480;28;20049;-67
2023/05/19 09:55:08;;;;;;;11.90;2.50;;;;;;;;;;5029629;28;20053;-67
2023/05/19 09:57:38;;;;;;;8.18;2.40;;;;;;;;;;5031053;28;20080;-67
2023/05/19 10:00:10;;;;;;;9.52;2.22;;;;;;;;;;5029458;28;20049;-67
2023/05/19 10:02:36;;;;;;;8.77;2.60;;;;;;;;;;5033581;28;20091;-67
2023/05/19 10:05:03;;;;;;;10.15;2.38;;;;;;;;;;5027841;28;20048;-70
2023/05/19 10:07:29;;;;;;;9.68;2.90;;;;;;;;;;5022420;28;20045;-67
2023/05/19 10:09:56;;;;;;;11.55;2.88;;;;;;;;;;5033529;28;20045;-67
2023/05/19 10:12:22;;;;;;;10.13;2.50;;;;;;;;;;5032743;28;20561;-67
2023/05/19 10:14:49;;;;;;;10.63;2.70;;;;;;;;;;5034204;28;20038;-67
2023/05/19 10:17:15;;;;;;;8.20;2.35;;;;;;;;;;5007939;28;20045;-67
2023/05/19 10:19:44;;;;;;;12.85;2.45;;;;;;;;;;5020117;28;20093;-67
2023/05/19 10:22:10;;;;;;;11.50;2.42;;;;;;;;;;5032985;28;20098;-67
2023/05/19 10:24:36;;;;;;;7.85;2.30;;;;;;;;;;5016653;28;20064;-67
2023/05/19 10:27:08;;;;;;;7.43;2.03;;;;;;;;;;5033048;28;20045;-67
2023/05/19 10:29:37;;;;;;;9.85;2.80;;;;;;;;;;5032923;28;20192;-67
2023/05/19 10:32:09;;;;;;;10.55;2.80;;;;;;;;;;5049044;28;20041;-68
2023/05/19 10:34:56;;;;;;;8.48;2.60;;;;;;;;;;5015611;28;20037;-67
2023/05/19 10:37:34;;;;;;;9.50;2.35;;;;;;;;;;5033896;28;20102;-67
2023/05/19 10:40:00;;;;;;;8.13;2.42;;;;;;;;;;5034755;28;20073;-67
2023/05/19 10:42:36;;;;;;;12.30;3.05;;;;;;;;;;5034798;28;20514;-66
2023/05/19 10:45:09;;;;;;;11.63;2.67;;;;;;;;;;5039913;28;20403;-66
2023/05/19 10:47:35;;;;;;;9.05;2.40;;;;;;;;;;5037977;28;20526;-67
2023/05/19 10:50:01;;;;;;;11.35;3.13;;;;;;;;;;5039214;28;20176;-67
2023/05/19 10:52:31;;;;;;;9.68;2.50;;;;;;;;;;5034604;28;20045;-67
2023/05/19 10:54:57;;;;;;;8.23;2.80;;;;;;;;;;5031350;28;20048;-68
2023/05/19 10:57:27;;;;;;;9.85;2.72;;;;;;;;;;5039311;28;20703;-66
2023/05/19 10:59:55;;;;;;;8.68;2.50;;;;;;;;;;5053513;28;20128;-67
2023/05/19 11:02:41;;;;;;;8.30;2.70;;;;;;;;;;5054203;28;20165;-67
2023/05/19 11:05:08;;;;;;;10.80;2.97;;;;;;;;;;5054248;28;20040;-66
2023/05/19 11:07:34;;;;;;;9.38;2.63;;;;;;;;;;5054004;28;20049;-67
2023/05/19 11:10:05;;;;;;;9.10;2.53;;;;;;;;;;5053956;28;20388;-67
2023/05/19 11:12:39;;;;;;;13.23;3.35;;;;;;;;;;5045430;28;20044;-67
2023/05/19 11:15:06;;;;;;;10.38;2.55;;;;;;;;;;5033794;28;20446;-67
2023/05/19 11:17:34;;;;;;;11.63;2.70;;;;;;;;;;5033936;28;20136;-67
2023/05/19 11:20:00;;;;;;;9.70;2.88;;;;;;;;;;5033517;28;20053;-67
2023/05/19 11:22:27;;;;;;;11.63;3.17;;;;;;;;;;5033338;28;20041;-67
2023/05/19 11:24:56;;;;;;;8.60;2.22;;;;;;;;;;5015719;28;20499;-67
2023/05/19 11:27:32;;;;;;;9.82;2.75;;;;;;;;;;5032287;28;20075;-67
2023/05/19 11:30:10;;;;;;;9.05;2.67;;;;;;;;;;5033257;28;20423;-67
2023/05/19 11:32:41;;;;;;;8.68;2.42;;;;;;;;;;5032368;28;20073;-67
2023/05/19 11:35:08;;;;;;;11.52;2.40;;;;;;;;;;5015241;28;20057;-67
2023/05/19 11:37:35;;;;;;;10.05;2.42;;;;;;;;;;5033351;28;20519;-67
2023/05/19 11:40:03;;;;;;;8.73;2.42;;;;;;;;;;5050936;28;20045;-67
2023/05/19 11:42:29;;;;;;;10.05;2.70;;;;;;;;;;5033850;28;20557;-67
2023/05/19 11:44:55;;;;;;;10.13;2.58;;;;;;;;;;5033317;28;20057;-68
2023/05/19 11:47:21;;;;;;;9.98;2.67;;;;;;;;;;5033337;28;20464;-67
2023/05/19 11:49:48;;;;;;;8.35;2.38;;;;;;;;;;5033086;28;20117;-68
2023/05/19 11:52:14;;;;;;;9.52;2.70;;;;;;;;;;5018260;28;20048;-67
2023/05/19 11:54:43;;;;;;;10.10;2.53;;;;;;;;;;5051603;28;20131;-67
2023/05/19 11:57:10;;;;;;;11.88;3.08;;;;;;;;;;5053298;28;20037;-67
2023/05/19 11:59:39;;;;;;;10.07;2.70;;;;;;;;;;5053114;28;20037;-67
2023/05/19 12:02:19;;;;;;;7.95;2.30;;;;;;;;;;5030371;28;20048;-68
2023/05/19 12:04:45;;;;;;;6.57;2.05;;;;;;;;;;5029638;28;20053;-68
2023/05/19 12:07:12;;;;;;;8.38;2.35;;;;;;;;;;5014872;28;20045;-67
2023/05/19 12:09:39;;;;;;;8.32;2.63;;;;;;;;;;5033198;28;20056;-67
2023/05/19 12:12:05;;;;;;;7.45;2.40;;;;;;;;;;5032289;28;20385;-68
2023/05/19 12:14:31;;;;;;;8.98;2.15;;;;;;;;;;5015302;28;20045;-67
2023/05/19 12:16:58;;;;;;;8.82;2.42;;;;;;;;;;5018742;28;20045;-67
2023/05/19 12:19:24;;;;;;;7.50;2.40;;;;;;;;;;5026669;28;20048;-67
2023/05/19 12:21:52;;;;;;;9.98;2.95;;;;;;;;;;5048246;28;20482;-67
2023/05/19 12:24:19;;;;;;;8.93;2.55;;;;;;;;;;5031326;28;20045;-68
2023/05/19 12:26:45;;;;;;;7.90;2.47;;;;;;;;;;5031582;28;20053;-67
2023/05/19 12:29:12;;;;;;;11.43;2.65;;;;;;;;;;5032908;28;20042;-67
2023/05/19 12:31:39;;;;;;;9.93;2.83;;;;;;;;;;5032687;28;20064;-68
2023/05/19 12:34:05;;;;;;;8.95;2.65;;;;;;;;;;5023645;28;20063;-67
2023/05/19 12:36:31;;;;;;;10.00;2.40;;;;;;;;;;5028912;28;20487;-67
2023/05/19 12:38:58;;;;;;;9.88;2.50;;;;;;;;;;5031837;28;20526;-67
2023/05/19 12:41:26;;;;;;;11.15;2.50;;;;;;;;;;5032586;28;20038;-67
2023/05/19 12:43:52;;;;;;;7.57;2.30;;;;;;;;;;5032106;28;20136;-67
2023/05/19 12:46:19;;;;;;;8.98;2.95;;;;;;;;;;5031012;28;20061;-67
2023/05/19 12:48:45;;;;;;;10.15;2.60;;;;;;;;;;5031423;28;20057;-67
2023/05/19 12:51:21;;;;;;;13.52;2.67;;;;;;;;;;5032042;28;20037;-67
2023/05/19 12:53:49;;;;;;;11.73;2.72;;;;;;;;;;5029380;28;20111;-67
2023/05/19 12:56:15;;;;;;;9.85;2.72;;;;;;;;;;5031956;28;20057;-68
2023/05/19 12:58:42;;;;;;;8.38;2.50;;;;;;;;;;5032165;28;20049;-68
2023/05/19 13:01:15;;;;;;;8.50;2.85;;;;;;;;;;5039635;28;20132;-67
2023/05/19 13:03:41;;;;;;;9.32;2.45;;;;;;;;;;5017559;28;20046;-67
2023/05/19 13:06:08;;;;;;;9.35;2.60;;;;;;;;;;5032203;28;20116;-67
2023/05/19 13:08:34;;;;;;;7.53;2.50;;;;;;;;;;5032235;28;20076;-66
2023/05/19 13:11:00;;;;;;;7.82;2.65;;;;;;;;;;5032156;28;20447;-67
2023/05/19 13:13:26;;;;;;;8.20;2.55;;;;;;;;;;5032058;28;20088;-67
2023/05/19 13:15:53;;;;;;;9.10;2.67;;;;;;;;;;5049813;28;20041;-67
2023/05/19 13:18:19;;;;;;;8.80;2.78;;;;;;;;;;5018822;28;20065;-67
2023/05/19 13:20:46;;;;;;;7.82;2.70;;;;;;;;;;5032171;28;20133;-69
2023/05/19 13:23:12;;;;;;;9.02;2.83;;;;;;;;;;5036286;28;20045;-69
2023/05/19 13:25:39;;;;;;;10.07;3.13;;;;;;;;;;5037244;28;20103;-69
2023/05/19 13:28:05;;;;;;;6.25;2.63;;;;;;;;;;5031605;28;20042;-69
2023/05/19 13:30:32;;;;;;;11.07;3.03;;;;;;;;;;5031635;28;20352;-69
2023/05/19 13:32:58;;;;;;;8.00;2.70;;;;;;;;;;5027927;28;20084;-69
2023/05/19 13:35:24;;;;;;;10.05;2.53;;;;;;;;;;5014202;28;20054;-69
2023/05/19 13:37:50;;;;;;;9.65;2.95;;;;;;;;;;5018477;28;20160;-68
2023/05/19 13:40:16;;;;;;;8.35;2.65;;;;;;;;;;5034635;28;20049;-69
2023/05/19 13:42:42;;;;;;;8.57;2.67;;;;;;;;;;5035784;28;20048;-69
2023/05/19 13:45:09;;;;;;;8.68;2.58;;;;;;;;;;5027643;28;20443;-69
2023/05/19 13:47:35;;;;;;;10.95;2.80;;;;;;;;;;5039998;28;20426;-69
2023/05/19 13:50:03;;;;;;;7.75;2.60;;;;;;;;;;5035765;28;20037;-69
2023/05/19 13:52:29;;;;;;;8.75;2.88;;;;;;;;;;5035758;28;20053;-69
2023/05/19 13:54:55;;;;;;;8.55;2.88;;;;;;;;;;5050774;28;20048;-69
2023/05/19 13:57:23;;;;;;;10.20;3.08;;;;;;;;;;5034470;28;20048;-69
2023/05/19 13:59:49;;;;;;;10.18;2.80;;;;;;;;;;5017844;28;20042;-68
2023/05/19 14:02:15;;;;;;;8.35;2.90;;;;;;;;;;5035784;28;20416;-69
2023/05/19 14:04:41;;;;;;;13.57;3.03;;;;;;;;;;5035517;28;20049;-68
2023/05/19 14:07:09;;;;;;;10.60;2.90;;;;;;;;;;5053834;28;20144;-69
2023/05/19 14:09:35;;;;;;;9.35;2.90;;;;;;;;;;5038688;28;20077;-69
2023/05/19 14:12:01;;;;;;;12.98;3.47;;;;;;;;;;5036977;28;20416;-68
2023/05/19 14:14:27;;;;;;;9.43;2.95;;;;;;;;;;5048291;28;20074;-69
2023/05/19 14:16:53;;;;;;;9.25;3.00;;;;;;;;;;5048255;28;20085;-69
2023/05/19 14:19:19;;;;;;;10.43;3.33;;;;;;;;;;5034062;28;20038;-69
2023/05/19 14:21:45;;;;;;;9.10;2.88;;;;;;;;;;5034412;28;20053;-69
2023/05/19 14:24:11;;;;;;;7.35;2.53;;;;;;;;;;5034741;28;20048;-69
2023/05/19 14:26:37;;;;;;;8.95;2.70;;;;;;;;;;5035026;28;20041;-69
2023/05/19 14:29:03;;;;;;;8.98;2.65;;;;;;;;;;5035103;28;20138;-68
2023/05/19 14:31:29;;;;;;;9.27;2.30;;;;;;;;;;5027123;28;20445;-68